sensor_id;sensor_type;location;lat;lon;timestamp;P1;durP1;ratioP1;P2;durP2;ratioP2
27303;SDS011;14791;52.392;13.092;2023-12-20T00:01:56;1.60;;;1.60;;
27303;SDS011;14791;52.392;13.092;2023-12-20T00:04:25;1.80;;;1.80;;
27303;SDS011;14791;52.392;13.092;2023-12-20T00:06:54;1.60;;;1.60;;
27303;SDS011;14791;52.392;13.092;2023-12-20T00:09:23;1.27;;;1.27;;
27303;SDS011;14791;52.392;13.092;2023-12-20T00:11:52;1.57;;;1.57;;
27303;SDS011;14791;52.392;13.092;2023-12-20T00:14:21;1.30;;;1.30;;
27303;SDS011;14791;52.392;13.092;2023-12-20T00:16:50;1.80;;;1.80;;
27303;SDS011;14791;52.392;13.092;2023-12-20T00:19:19;1.63;;;1.63;;
27303;SDS011;14791;52.392;13.092;2023-12-20T00:21:47;1.80;;;1.80;;
27303;SDS011;14791;52.392;13.092;2023-12-20T00:24:17;1.43;;;1.43;;
27303;SDS011;14791;52.392;13.092;2023-12-20T00:26:46;1.70;;;1.70;;
27303;SDS011;14791;52.392;13.092;2023-12-20T00:29:14;1.47;;;1.47;;
27303;SDS011;14791;52.392;13.092;2023-12-20T00:31:43;1.43;;;1.43;;
27303;SDS011;14791;52.392;13.092;2023-12-20T00:34:12;1.27;;;1.27;;
27303;SDS011;14791;52.392;13.092;2023-12-20T00:36:41;1.53;;;1.53;;
27303;SDS011;14791;52.392;13.092;2023-12-20T00:39:10;1.40;;;1.40;;
27303;SDS011;14791;52.392;13.092;2023-12-20T00:41:39;1.27;;;1.27;;
27303;SDS011;14791;52.392;13.092;2023-12-20T00:44:08;1.30;;;1.30;;
27303;SDS011;14791;52.392;13.092;2023-12-20T00:46:37;1.17;;;1.17;;
27303;SDS011;14791;52.392;13.092;2023-12-20T00:49:06;1.30;;;1.30;;
27303;SDS011;14791;52.392;13.092;2023-12-20T00:51:34;1.30;;;1.30;;
27303;SDS011;14791;52.392;13.092;2023-12-20T00:54:03;1.43;;;1.43;;
27303;SDS011;14791;52.392;13.092;2023-12-20T00:56:32;1.30;;;1.30;;
27303;SDS011;14791;52.392;13.092;2023-12-20T00:59:01;1.40;;;1.40;;
27303;SDS011;14791;52.392;13.092;2023-12-20T01:01:30;1.30;;;1.30;;
27303;SDS011;14791;52.392;13.092;2023-12-20T01:04:00;1.50;;;1.50;;
27303;SDS011;14791;52.392;13.092;2023-12-20T01:06:29;1.40;;;1.40;;
27303;SDS011;14791;52.392;13.092;2023-12-20T01:08:58;1.40;;;1.40;;
27303;SDS011;14791;52.392;13.092;2023-12-20T01:11:26;1.50;;;1.50;;
27303;SDS011;14791;52.392;13.092;2023-12-20T01:13:55;1.20;;;1.20;;
27303;SDS011;14791;52.392;13.092;2023-12-20T01:16:24;1.30;;;1.30;;
27303;SDS011;14791;52.392;13.092;2023-12-20T01:18:53;1.20;;;1.20;;
27303;SDS011;14791;52.392;13.092;2023-12-20T01:21:22;1.30;;;1.30;;
27303;SDS011;14791;52.392;13.092;2023-12-20T01:23:51;1.33;;;1.33;;
27303;SDS011;14791;52.392;13.092;2023-12-20T01:26:20;1.50;;;1.50;;
27303;SDS011;14791;52.392;13.092;2023-12-20T01:28:49;1.40;;;1.40;;
27303;SDS011;14791;52.392;13.092;2023-12-20T01:31:18;1.57;;;1.57;;
27303;SDS011;14791;52.392;13.092;2023-12-20T01:33:47;1.20;;;1.20;;
27303;SDS011;14791;52.392;13.092;2023-12-20T01:36:16;1.40;;;1.40;;
27303;SDS011;14791;52.392;13.092;2023-12-20T01:38:45;1.40;;;1.40;;
27303;SDS011;14791;52.392;13.092;2023-12-20T01:41:14;1.60;;;1.60;;
27303;SDS011;14791;52.392;13.092;2023-12-20T01:43:43;1.43;;;1.43;;
27303;SDS011;14791;52.392;13.092;2023-12-20T01:46:12;1.70;;;1.70;;
27303;SDS011;14791;52.392;13.092;2023-12-20T01:48:41;1.53;;;1.53;;
27303;SDS011;14791;52.392;13.092;2023-12-20T01:51:10;1.63;;;1.63;;
27303;SDS011;14791;52.392;13.092;2023-12-20T01:53:39;1.63;;;1.63;;
27303;SDS011;14791;52.392;13.092;2023-12-20T01:56:10;1.80;;;1.80;;
27303;SDS011;14791;52.392;13.092;2023-12-20T01:58:41;1.80;;;1.80;;
27303;SDS011;14791;52.392;13.092;2023-12-20T02:01:11;1.90;;;1.90;;
27303;SDS011;14791;52.392;13.092;2023-12-20T02:03:41;1.70;;;1.70;;
27303;SDS011;14791;52.392;13.092;2023-12-20T02:06:10;1.87;;;1.87;;
27303;SDS011;14791;52.392;13.092;2023-12-20T02:08:40;2.17;;;2.07;;
27303;SDS011;14791;52.392;13.092;2023-12-20T02:11:09;2.00;;;2.00;;
27303;SDS011;14791;52.392;13.092;2023-12-20T02:13:38;2.40;;;2.40;;
27303;SDS011;14791;52.392;13.092;2023-12-20T02:16:07;2.13;;;2.13;;
27303;SDS011;14791;52.392;13.092;2023-12-20T02:18:36;2.73;;;2.73;;
27303;SDS011;14791;52.392;13.092;2023-12-20T02:21:05;2.50;;;2.47;;
27303;SDS011;14791;52.392;13.092;2023-12-20T02:23:34;2.10;;;2.10;;
27303;SDS011;14791;52.392;13.092;2023-12-20T02:26:03;2.20;;;2.20;;
27303;SDS011;14791;52.392;13.092;2023-12-20T02:28:34;2.43;;;2.43;;
27303;SDS011;14791;52.392;13.092;2023-12-20T02:31:03;2.20;;;2.20;;
27303;SDS011;14791;52.392;13.092;2023-12-20T02:33:32;2.30;;;2.30;;
27303;SDS011;14791;52.392;13.092;2023-12-20T02:36:01;2.77;;;2.67;;
27303;SDS011;14791;52.392;13.092;2023-12-20T02:38:30;2.70;;;2.60;;
27303;SDS011;14791;52.392;13.092;2023-12-20T02:40:59;2.50;;;2.50;;
27303;SDS011;14791;52.392;13.092;2023-12-20T02:43:28;3.10;;;3.00;;
27303;SDS011;14791;52.392;13.092;2023-12-20T02:45:57;3.07;;;2.97;;
27303;SDS011;14791;52.392;13.092;2023-12-20T02:48:26;3.10;;;3.00;;
27303;SDS011;14791;52.392;13.092;2023-12-20T02:50:54;3.20;;;3.10;;
27303;SDS011;14791;52.392;13.092;2023-12-20T02:53:23;2.90;;;2.80;;
27303;SDS011;14791;52.392;13.092;2023-12-20T02:55:52;3.00;;;2.90;;
27303;SDS011;14791;52.392;13.092;2023-12-20T02:58:21;2.90;;;2.80;;
27303;SDS011;14791;52.392;13.092;2023-12-20T03:00:50;2.83;;;2.73;;
27303;SDS011;14791;52.392;13.092;2023-12-20T03:03:19;3.20;;;3.10;;
27303;SDS011;14791;52.392;13.092;2023-12-20T03:05:48;3.30;;;3.20;;
27303;SDS011;14791;52.392;13.092;2023-12-20T03:08:17;3.27;;;3.17;;
27303;SDS011;14791;52.392;13.092;2023-12-20T03:10:46;3.50;;;3.40;;
27303;SDS011;14791;52.392;13.092;2023-12-20T03:13:15;3.37;;;3.27;;
27303;SDS011;14791;52.392;13.092;2023-12-20T03:15:44;3.40;;;3.30;;
27303;SDS011;14791;52.392;13.092;2023-12-20T03:18:13;3.40;;;3.30;;
27303;SDS011;14791;52.392;13.092;2023-12-20T03:20:42;3.67;;;3.57;;
27303;SDS011;14791;52.392;13.092;2023-12-20T03:23:11;3.40;;;3.30;;
27303;SDS011;14791;52.392;13.092;2023-12-20T03:25:40;3.80;;;3.70;;
27303;SDS011;14791;52.392;13.092;2023-12-20T03:28:09;3.93;;;3.83;;
27303;SDS011;14791;52.392;13.092;2023-12-20T03:30:38;3.43;;;3.33;;
27303;SDS011;14791;52.392;13.092;2023-12-20T03:33:06;3.83;;;3.73;;
27303;SDS011;14791;52.392;13.092;2023-12-20T03:35:35;4.00;;;3.80;;
27303;SDS011;14791;52.392;13.092;2023-12-20T03:38:04;3.73;;;3.60;;
27303;SDS011;14791;52.392;13.092;2023-12-20T03:40:33;3.90;;;3.80;;
27303;SDS011;14791;52.392;13.092;2023-12-20T03:43:02;3.53;;;3.43;;
27303;SDS011;14791;52.392;13.092;2023-12-20T03:45:31;4.03;;;3.93;;
27303;SDS011;14791;52.392;13.092;2023-12-20T03:48:01;3.87;;;3.77;;
27303;SDS011;14791;52.392;13.092;2023-12-20T03:50:30;3.87;;;3.77;;
27303;SDS011;14791;52.392;13.092;2023-12-20T03:52:59;3.50;;;3.40;;
27303;SDS011;14791;52.392;13.092;2023-12-20T03:55:27;3.90;;;3.80;;
27303;SDS011;14791;52.392;13.092;2023-12-20T03:57:56;3.93;;;3.83;;
27303;SDS011;14791;52.392;13.092;2023-12-20T04:00:25;3.90;;;3.70;;
27303;SDS011;14791;52.392;13.092;2023-12-20T04:02:54;3.60;;;3.50;;
27303;SDS011;14791;52.392;13.092;2023-12-20T04:05:23;3.33;;;3.23;;
27303;SDS011;14791;52.392;13.092;2023-12-20T04:07:52;3.70;;;3.27;;
27303;SDS011;14791;52.392;13.092;2023-12-20T04:10:21;3.00;;;2.90;;
27303;SDS011;14791;52.392;13.092;2023-12-20T04:12:50;2.73;;;2.63;;
27303;SDS011;14791;52.392;13.092;2023-12-20T04:15:19;3.00;;;2.80;;
27303;SDS011;14791;52.392;13.092;2023-12-20T04:17:48;3.47;;;3.27;;
27303;SDS011;14791;52.392;13.092;2023-12-20T04:20:16;2.80;;;2.60;;
27303;SDS011;14791;52.392;13.092;2023-12-20T04:22:45;2.77;;;2.50;;
27303;SDS011;14791;52.392;13.092;2023-12-20T04:25:14;2.43;;;2.20;;
27303;SDS011;14791;52.392;13.092;2023-12-20T04:27:43;2.40;;;2.20;;
27303;SDS011;14791;52.392;13.092;2023-12-20T04:30:13;2.20;;;2.00;;
27303;SDS011;14791;52.392;13.092;2023-12-20T04:32:42;2.27;;;2.00;;
27303;SDS011;14791;52.392;13.092;2023-12-20T04:35:11;1.93;;;1.77;;
27303;SDS011;14791;52.392;13.092;2023-12-20T04:37:40;1.57;;;1.50;;
27303;SDS011;14791;52.392;13.092;2023-12-20T04:40:09;1.53;;;1.30;;
27303;SDS011;14791;52.392;13.092;2023-12-20T04:42:38;3.87;;;1.67;;
27303;SDS011;14791;52.392;13.092;2023-12-20T04:45:07;1.30;;;1.20;;
27303;SDS011;14791;52.392;13.092;2023-12-20T04:47:38;4.47;;;1.30;;
27303;SDS011;14791;52.392;13.092;2023-12-20T04:50:09;2.23;;;1.20;;
27303;SDS011;14791;52.392;13.092;2023-12-20T04:52:40;1.90;;;1.20;;
27303;SDS011;14791;52.392;13.092;2023-12-20T04:55:09;3.80;;;1.30;;
27303;SDS011;14791;52.392;13.092;2023-12-20T04:57:38;1.90;;;1.40;;
27303;SDS011;14791;52.392;13.092;2023-12-20T05:00:07;1.83;;;1.20;;
27303;SDS011;14791;52.392;13.092;2023-12-20T05:02:37;1.90;;;1.10;;
27303;SDS011;14791;52.392;13.092;2023-12-20T05:05:06;0.87;;;0.87;;
27303;SDS011;14791;52.392;13.092;2023-12-20T05:07:35;2.63;;;1.00;;
27303;SDS011;14791;52.392;13.092;2023-12-20T05:10:04;1.17;;;1.13;;
27303;SDS011;14791;52.392;13.092;2023-12-20T05:12:36;1.17;;;1.07;;
27303;SDS011;14791;52.392;13.092;2023-12-20T05:15:05;1.20;;;0.93;;
27303;SDS011;14791;52.392;13.092;2023-12-20T05:17:35;3.80;;;1.10;;
27303;SDS011;14791;52.392;13.092;2023-12-20T05:20:04;2.40;;;1.20;;
27303;SDS011;14791;52.392;13.092;2023-12-20T05:22:34;3.10;;;1.07;;
27303;SDS011;14791;52.392;13.092;2023-12-20T05:25:03;4.47;;;1.23;;
27303;SDS011;14791;52.392;13.092;2023-12-20T05:27:32;1.23;;;1.13;;
27303;SDS011;14791;52.392;13.092;2023-12-20T05:30:01;2.70;;;1.70;;
27303;SDS011;14791;52.392;13.092;2023-12-20T05:32:31;1.23;;;0.80;;
27303;SDS011;14791;52.392;13.092;2023-12-20T05:35:00;1.47;;;1.20;;
27303;SDS011;14791;52.392;13.092;2023-12-20T05:37:30;2.23;;;0.93;;
27303;SDS011;14791;52.392;13.092;2023-12-20T05:39:59;1.60;;;1.50;;
27303;SDS011;14791;52.392;13.092;2023-12-20T05:42:28;1.90;;;1.30;;
27303;SDS011;14791;52.392;13.092;2023-12-20T05:44:57;2.13;;;1.07;;
27303;SDS011;14791;52.392;13.092;2023-12-20T05:47:26;3.33;;;1.20;;
27303;SDS011;14791;52.392;13.092;2023-12-20T05:49:55;1.43;;;1.20;;
27303;SDS011;14791;52.392;13.092;2023-12-20T05:52:24;1.60;;;1.50;;
27303;SDS011;14791;52.392;13.092;2023-12-20T05:54:53;1.67;;;0.90;;
27303;SDS011;14791;52.392;13.092;2023-12-20T05:57:23;1.30;;;1.20;;
27303;SDS011;14791;52.392;13.092;2023-12-20T05:59:52;1.00;;;1.00;;
27303;SDS011;14791;52.392;13.092;2023-12-20T06:02:21;2.00;;;1.20;;
27303;SDS011;14791;52.392;13.092;2023-12-20T06:04:50;3.30;;;1.13;;
27303;SDS011;14791;52.392;13.092;2023-12-20T06:07:19;1.87;;;1.40;;
27303;SDS011;14791;52.392;13.092;2023-12-20T06:09:48;1.73;;;1.13;;
27303;SDS011;14791;52.392;13.092;2023-12-20T06:12:18;1.67;;;1.20;;
27303;SDS011;14791;52.392;13.092;2023-12-20T06:14:47;2.23;;;1.23;;
27303;SDS011;14791;52.392;13.092;2023-12-20T06:17:16;1.20;;;1.10;;
27303;SDS011;14791;52.392;13.092;2023-12-20T06:19:45;2.20;;;1.10;;
27303;SDS011;14791;52.392;13.092;2023-12-20T06:22:15;3.40;;;1.70;;
27303;SDS011;14791;52.392;13.092;2023-12-20T06:24:44;3.37;;;1.33;;
27303;SDS011;14791;52.392;13.092;2023-12-20T06:27:13;1.43;;;1.33;;
27303;SDS011;14791;52.392;13.092;2023-12-20T06:29:42;2.07;;;1.03;;
27303;SDS011;14791;52.392;13.092;2023-12-20T06:32:12;1.90;;;1.30;;
27303;SDS011;14791;52.392;13.092;2023-12-20T06:34:40;1.10;;;0.90;;
27303;SDS011;14791;52.392;13.092;2023-12-20T06:37:10;1.77;;;1.30;;
27303;SDS011;14791;52.392;13.092;2023-12-20T06:39:39;1.87;;;1.40;;
27303;SDS011;14791;52.392;13.092;2023-12-20T06:42:07;1.43;;;1.33;;
27303;SDS011;14791;52.392;13.092;2023-12-20T06:44:36;1.47;;;1.17;;
27303;SDS011;14791;52.392;13.092;2023-12-20T06:47:05;1.03;;;1.03;;
27303;SDS011;14791;52.392;13.092;2023-12-20T06:49:34;1.10;;;1.10;;
27303;SDS011;14791;52.392;13.092;2023-12-20T06:52:03;3.67;;;1.53;;
27303;SDS011;14791;52.392;13.092;2023-12-20T06:54:33;2.10;;;1.20;;
27303;SDS011;14791;52.392;13.092;2023-12-20T06:57:02;1.40;;;1.30;;
27303;SDS011;14791;52.392;13.092;2023-12-20T06:59:31;1.33;;;1.13;;
27303;SDS011;14791;52.392;13.092;2023-12-20T07:02:00;3.27;;;1.70;;
27303;SDS011;14791;52.392;13.092;2023-12-20T07:04:30;1.77;;;1.20;;
27303;SDS011;14791;52.392;13.092;2023-12-20T07:06:59;1.43;;;1.33;;
27303;SDS011;14791;52.392;13.092;2023-12-20T07:09:28;1.40;;;1.30;;
27303;SDS011;14791;52.392;13.092;2023-12-20T07:11:57;2.03;;;1.23;;
27303;SDS011;14791;52.392;13.092;2023-12-20T07:14:26;3.17;;;1.63;;
27303;SDS011;14791;52.392;13.092;2023-12-20T07:16:56;2.03;;;1.20;;
27303;SDS011;14791;52.392;13.092;2023-12-20T07:19:25;2.87;;;1.40;;
27303;SDS011;14791;52.392;13.092;2023-12-20T07:21:54;1.27;;;1.27;;
27303;SDS011;14791;52.392;13.092;2023-12-20T07:24:23;1.83;;;1.17;;
27303;SDS011;14791;52.392;13.092;2023-12-20T07:26:52;3.63;;;1.40;;
27303;SDS011;14791;52.392;13.092;2023-12-20T07:29:21;2.87;;;1.20;;
27303;SDS011;14791;52.392;13.092;2023-12-20T07:31:50;1.43;;;1.33;;
27303;SDS011;14791;52.392;13.092;2023-12-20T07:34:20;1.47;;;1.37;;
27303;SDS011;14791;52.392;13.092;2023-12-20T07:36:49;1.67;;;1.37;;
27303;SDS011;14791;52.392;13.092;2023-12-20T07:39:18;3.93;;;1.10;;
27303;SDS011;14791;52.392;13.092;2023-12-20T07:41:47;1.20;;;1.10;;
27303;SDS011;14791;52.392;13.092;2023-12-20T07:44:16;2.63;;;1.23;;
27303;SDS011;14791;52.392;13.092;2023-12-20T07:46:45;1.50;;;1.20;;
27303;SDS011;14791;52.392;13.092;2023-12-20T07:49:15;1.40;;;1.30;;
27303;SDS011;14791;52.392;13.092;2023-12-20T07:51:44;1.87;;;0.87;;
27303;SDS011;14791;52.392;13.092;2023-12-20T07:54:13;2.33;;;1.10;;
27303;SDS011;14791;52.392;13.092;2023-12-20T07:56:42;1.57;;;1.10;;
27303;SDS011;14791;52.392;13.092;2023-12-20T07:59:11;1.73;;;0.93;;
27303;SDS011;14791;52.392;13.092;2023-12-20T08:01:40;2.57;;;1.07;;
27303;SDS011;14791;52.392;13.092;2023-12-20T08:04:09;2.97;;;1.00;;
27303;SDS011;14791;52.392;13.092;2023-12-20T08:06:38;2.00;;;1.40;;
27303;SDS011;14791;52.392;13.092;2023-12-20T08:09:07;5.07;;;1.37;;
27303;SDS011;14791;52.392;13.092;2023-12-20T08:11:37;1.40;;;1.30;;
27303;SDS011;14791;52.392;13.092;2023-12-20T08:14:06;2.73;;;1.50;;
27303;SDS011;14791;52.392;13.092;2023-12-20T08:16:35;1.57;;;1.07;;
27303;SDS011;14791;52.392;13.092;2023-12-20T08:19:03;3.03;;;1.03;;
27303;SDS011;14791;52.392;13.092;2023-12-20T08:21:33;3.80;;;1.20;;
27303;SDS011;14791;52.392;13.092;2023-12-20T08:24:02;1.47;;;1.10;;
27303;SDS011;14791;52.392;13.092;2023-12-20T08:26:31;1.30;;;1.07;;
27303;SDS011;14791;52.392;13.092;2023-12-20T08:29:00;4.03;;;1.17;;
27303;SDS011;14791;52.392;13.092;2023-12-20T08:31:29;1.67;;;1.10;;
27303;SDS011;14791;52.392;13.092;2023-12-20T08:33:58;1.33;;;1.07;;
27303;SDS011;14791;52.392;13.092;2023-12-20T08:36:27;1.50;;;1.07;;
27303;SDS011;14791;52.392;13.092;2023-12-20T08:38:56;3.13;;;1.40;;
27303;SDS011;14791;52.392;13.092;2023-12-20T08:41:25;3.73;;;1.20;;
27303;SDS011;14791;52.392;13.092;2023-12-20T08:43:53;2.67;;;1.17;;
27303;SDS011;14791;52.392;13.092;2023-12-20T08:46:25;2.93;;;1.37;;
27303;SDS011;14791;52.392;13.092;2023-12-20T08:48:54;4.53;;;1.40;;
27303;SDS011;14791;52.392;13.092;2023-12-20T08:51:23;1.43;;;1.33;;
27303;SDS011;14791;52.392;13.092;2023-12-20T08:53:52;1.93;;;1.43;;
27303;SDS011;14791;52.392;13.092;2023-12-20T08:56:21;4.83;;;1.33;;
27303;SDS011;14791;52.392;13.092;2023-12-20T08:58:50;1.93;;;0.97;;
27303;SDS011;14791;52.392;13.092;2023-12-20T09:01:19;2.03;;;1.40;;
27303;SDS011;14791;52.392;13.092;2023-12-20T09:03:48;3.20;;;1.40;;
27303;SDS011;14791;52.392;13.092;2023-12-20T09:06:16;2.83;;;1.33;;
27303;SDS011;14791;52.392;13.092;2023-12-20T09:08:45;2.40;;;0.90;;
27303;SDS011;14791;52.392;13.092;2023-12-20T09:11:14;1.43;;;1.33;;
27303;SDS011;14791;52.392;13.092;2023-12-20T09:13:44;1.27;;;1.17;;
27303;SDS011;14791;52.392;13.092;2023-12-20T09:16:13;2.10;;;1.40;;
27303;SDS011;14791;52.392;13.092;2023-12-20T09:18:42;1.43;;;1.33;;
27303;SDS011;14791;52.392;13.092;2023-12-20T09:21:11;2.13;;;1.27;;
27303;SDS011;14791;52.392;13.092;2023-12-20T09:23:40;1.30;;;0.93;;
27303;SDS011;14791;52.392;13.092;2023-12-20T09:26:09;2.33;;;1.20;;
27303;SDS011;14791;52.392;13.092;2023-12-20T09:28:38;2.00;;;1.00;;
27303;SDS011;14791;52.392;13.092;2023-12-20T09:31:07;2.50;;;1.40;;
27303;SDS011;14791;52.392;13.092;2023-12-20T09:33:36;3.80;;;1.20;;
27303;SDS011;14791;52.392;13.092;2023-12-20T09:36:05;2.53;;;1.27;;
27303;SDS011;14791;52.392;13.092;2023-12-20T09:38:34;2.13;;;1.07;;
27303;SDS011;14791;52.392;13.092;2023-12-20T09:41:03;2.20;;;1.80;;
27303;SDS011;14791;52.392;13.092;2023-12-20T09:43:33;2.53;;;1.40;;
27303;SDS011;14791;52.392;13.092;2023-12-20T09:46:05;1.87;;;1.67;;
27303;SDS011;14791;52.392;13.092;2023-12-20T09:48:35;2.13;;;1.10;;
27303;SDS011;14791;52.392;13.092;2023-12-20T09:51:05;1.87;;;1.30;;
27303;SDS011;14791;52.392;13.092;2023-12-20T09:53:34;2.57;;;1.27;;
27303;SDS011;14791;52.392;13.092;2023-12-20T09:56:04;2.37;;;1.30;;
27303;SDS011;14791;52.392;13.092;2023-12-20T09:58:36;2.50;;;1.37;;
27303;SDS011;14791;52.392;13.092;2023-12-20T10:01:06;2.13;;;1.00;;
27303;SDS011;14791;52.392;13.092;2023-12-20T10:03:36;2.27;;;1.33;;
27303;SDS011;14791;52.392;13.092;2023-12-20T10:06:07;2.87;;;1.47;;
27303;SDS011;14791;52.392;13.092;2023-12-20T10:08:38;2.57;;;1.60;;
27303;SDS011;14791;52.392;13.092;2023-12-20T10:11:07;2.20;;;1.87;;
27303;SDS011;14791;52.392;13.092;2023-12-20T10:13:40;3.67;;;1.63;;
27303;SDS011;14791;52.392;13.092;2023-12-20T10:16:09;2.33;;;1.10;;
27303;SDS011;14791;52.392;13.092;2023-12-20T10:18:38;3.37;;;1.77;;
27303;SDS011;14791;52.392;13.092;2023-12-20T10:21:07;3.73;;;1.40;;
27303;SDS011;14791;52.392;13.092;2023-12-20T10:23:37;2.37;;;1.57;;
27303;SDS011;14791;52.392;13.092;2023-12-20T10:26:06;2.03;;;1.50;;
27303;SDS011;14791;52.392;13.092;2023-12-20T10:28:36;2.70;;;1.63;;
27303;SDS011;14791;52.392;13.092;2023-12-20T10:31:05;3.23;;;1.87;;
27303;SDS011;14791;52.392;13.092;2023-12-20T10:33:34;2.20;;;1.40;;
27303;SDS011;14791;52.392;13.092;2023-12-20T10:36:04;1.93;;;1.37;;
27303;SDS011;14791;52.392;13.092;2023-12-20T10:38:34;1.63;;;1.53;;
27303;SDS011;14791;52.392;13.092;2023-12-20T10:41:05;3.80;;;1.83;;
27303;SDS011;14791;52.392;13.092;2023-12-20T10:43:37;4.20;;;1.60;;
27303;SDS011;14791;52.392;13.092;2023-12-20T10:46:06;3.30;;;1.83;;
27303;SDS011;14791;52.392;13.092;2023-12-20T10:48:37;3.13;;;1.73;;
27303;SDS011;14791;52.392;13.092;2023-12-20T10:51:08;2.20;;;2.00;;
27303;SDS011;14791;52.392;13.092;2023-12-20T10:53:38;2.33;;;1.87;;
27303;SDS011;14791;52.392;13.092;2023-12-20T10:56:08;4.67;;;1.80;;
27303;SDS011;14791;52.392;13.092;2023-12-20T10:58:41;1.47;;;1.40;;
27303;SDS011;14791;52.392;13.092;2023-12-20T11:01:12;4.23;;;1.77;;
27303;SDS011;14791;52.392;13.092;2023-12-20T11:03:52;1.73;;;1.50;;
27303;SDS011;14791;52.392;13.092;2023-12-20T11:09:25;4.30;;;1.50;;
27303;SDS011;14791;52.392;13.092;2023-12-20T11:14:51;2.30;;;1.40;;
27303;SDS011;14791;52.392;13.092;2023-12-20T11:17:23;3.97;;;1.47;;
27303;SDS011;14791;52.392;13.092;2023-12-20T11:22:30;1.90;;;1.63;;
27303;SDS011;14791;52.392;13.092;2023-12-20T11:25:03;2.20;;;2.10;;
27303;SDS011;14791;52.392;13.092;2023-12-20T11:27:37;2.93;;;1.40;;
27303;SDS011;14791;52.392;13.092;2023-12-20T11:30:11;2.93;;;1.73;;
27303;SDS011;14791;52.392;13.092;2023-12-20T11:32:42;1.60;;;1.50;;
27303;SDS011;14791;52.392;13.092;2023-12-20T11:37:44;2.03;;;1.37;;
27303;SDS011;14791;52.392;13.092;2023-12-20T11:40:17;3.23;;;1.50;;
27303;SDS011;14791;52.392;13.092;2023-12-20T11:42:48;1.63;;;1.50;;
27303;SDS011;14791;52.392;13.092;2023-12-20T11:45:19;1.77;;;1.43;;
27303;SDS011;14791;52.392;13.092;2023-12-20T11:47:50;3.13;;;1.43;;
27303;SDS011;14791;52.392;13.092;2023-12-20T11:50:21;1.63;;;1.40;;
27303;SDS011;14791;52.392;13.092;2023-12-20T11:52:52;2.47;;;1.40;;
27303;SDS011;14791;52.392;13.092;2023-12-20T11:55:22;5.27;;;1.63;;
27303;SDS011;14791;52.392;13.092;2023-12-20T11:57:52;1.47;;;1.17;;
27303;SDS011;14791;52.392;13.092;2023-12-20T12:00:21;2.03;;;1.03;;
27303;SDS011;14791;52.392;13.092;2023-12-20T12:03:01;2.13;;;1.50;;
27303;SDS011;14791;52.392;13.092;2023-12-20T12:05:26;1.50;;;1.30;;
27303;SDS011;14791;52.392;13.092;2023-12-20T12:07:55;1.80;;;1.53;;
27303;SDS011;14791;52.392;13.092;2023-12-20T12:10:24;1.87;;;1.60;;
27303;SDS011;14791;52.392;13.092;2023-12-20T12:12:53;3.47;;;1.37;;
27303;SDS011;14791;52.392;13.092;2023-12-20T12:15:22;2.00;;;1.50;;
27303;SDS011;14791;52.392;13.092;2023-12-20T12:17:55;2.13;;;1.33;;
27303;SDS011;14791;52.392;13.092;2023-12-20T12:20:24;1.70;;;1.57;;
27303;SDS011;14791;52.392;13.092;2023-12-20T12:23:13;1.87;;;1.50;;
27303;SDS011;14791;52.392;13.092;2023-12-20T12:25:31;1.10;;;1.10;;
27303;SDS011;14791;52.392;13.092;2023-12-20T12:28:02;2.83;;;1.83;;
27303;SDS011;14791;52.392;13.092;2023-12-20T12:30:31;2.67;;;1.40;;
27303;SDS011;14791;52.392;13.092;2023-12-20T12:33:00;2.13;;;1.60;;
27303;SDS011;14791;52.392;13.092;2023-12-20T12:35:31;1.83;;;1.30;;
27303;SDS011;14791;52.392;13.092;2023-12-20T12:38:00;3.23;;;1.17;;
27303;SDS011;14791;52.392;13.092;2023-12-20T12:40:30;1.90;;;1.63;;
27303;SDS011;14791;52.392;13.092;2023-12-20T12:43:04;2.33;;;1.30;;
27303;SDS011;14791;52.392;13.092;2023-12-20T12:45:33;1.87;;;1.70;;
27303;SDS011;14791;52.392;13.092;2023-12-20T12:48:05;2.20;;;1.60;;
27303;SDS011;14791;52.392;13.092;2023-12-20T12:50:34;3.13;;;1.47;;
27303;SDS011;14791;52.392;13.092;2023-12-20T12:53:03;1.93;;;1.43;;
27303;SDS011;14791;52.392;13.092;2023-12-20T12:55:32;2.63;;;2.20;;
27303;SDS011;14791;52.392;13.092;2023-12-20T12:58:03;2.87;;;1.40;;
27303;SDS011;14791;52.392;13.092;2023-12-20T13:00:32;1.23;;;1.20;;
27303;SDS011;14791;52.392;13.092;2023-12-20T13:03:01;2.27;;;1.47;;
27303;SDS011;14791;52.392;13.092;2023-12-20T13:05:31;2.13;;;1.90;;
27303;SDS011;14791;52.392;13.092;2023-12-20T13:07:59;1.57;;;1.47;;
27303;SDS011;14791;52.392;13.092;2023-12-20T13:10:28;1.57;;;1.47;;
27303;SDS011;14791;52.392;13.092;2023-12-20T13:12:57;2.07;;;1.40;;
27303;SDS011;14791;52.392;13.092;2023-12-20T13:15:26;2.20;;;1.20;;
27303;SDS011;14791;52.392;13.092;2023-12-20T13:17:55;2.93;;;1.00;;
27303;SDS011;14791;52.392;13.092;2023-12-20T13:20:24;2.40;;;1.27;;
27303;SDS011;14791;52.392;13.092;2023-12-20T13:22:53;2.07;;;1.67;;
27303;SDS011;14791;52.392;13.092;2023-12-20T13:25:22;2.43;;;2.00;;
27303;SDS011;14791;52.392;13.092;2023-12-20T13:27:51;1.93;;;1.53;;
27303;SDS011;14791;52.392;13.092;2023-12-20T13:30:21;1.70;;;1.60;;
27303;SDS011;14791;52.392;13.092;2023-12-20T13:32:50;0.80;;;0.80;;
27303;SDS011;14791;52.392;13.092;2023-12-20T13:35:18;0.83;;;0.83;;
27303;SDS011;14791;52.392;13.092;2023-12-20T13:37:47;1.23;;;0.60;;
27303;SDS011;14791;52.392;13.092;2023-12-20T13:40:18;0.70;;;0.70;;
27303;SDS011;14791;52.392;13.092;2023-12-20T13:42:47;1.30;;;0.60;;
27303;SDS011;14791;52.392;13.092;2023-12-20T13:45:16;0.73;;;0.50;;
27303;SDS011;14791;52.392;13.092;2023-12-20T13:47:45;1.17;;;0.53;;
27303;SDS011;14791;52.392;13.092;2023-12-20T13:50:15;0.67;;;0.60;;
27303;SDS011;14791;52.392;13.092;2023-12-20T13:52:44;0.63;;;0.63;;
27303;SDS011;14791;52.392;13.092;2023-12-20T13:55:13;0.27;;;0.27;;
27303;SDS011;14791;52.392;13.092;2023-12-20T13:57:42;0.40;;;0.40;;
27303;SDS011;14791;52.392;13.092;2023-12-20T14:00:11;0.50;;;0.50;;
27303;SDS011;14791;52.392;13.092;2023-12-20T14:02:41;0.50;;;0.50;;
27303;SDS011;14791;52.392;13.092;2023-12-20T14:05:10;0.70;;;0.70;;
27303;SDS011;14791;52.392;13.092;2023-12-20T14:07:41;0.60;;;0.57;;
27303;SDS011;14791;52.392;13.092;2023-12-20T14:10:12;0.53;;;0.53;;
27303;SDS011;14791;52.392;13.092;2023-12-20T14:12:41;0.47;;;0.40;;
27303;SDS011;14791;52.392;13.092;2023-12-20T14:15:11;0.50;;;0.50;;
27303;SDS011;14791;52.392;13.092;2023-12-20T14:17:40;0.80;;;0.80;;
27303;SDS011;14791;52.392;13.092;2023-12-20T14:20:10;0.70;;;0.70;;
27303;SDS011;14791;52.392;13.092;2023-12-20T14:22:41;1.13;;;0.90;;
27303;SDS011;14791;52.392;13.092;2023-12-20T14:25:11;0.90;;;0.57;;
27303;SDS011;14791;52.392;13.092;2023-12-20T14:27:43;0.73;;;0.73;;
27303;SDS011;14791;52.392;13.092;2023-12-20T14:30:12;0.93;;;0.87;;
27303;SDS011;14791;52.392;13.092;2023-12-20T14:32:43;0.97;;;0.97;;
27303;SDS011;14791;52.392;13.092;2023-12-20T14:35:13;2.30;;;1.00;;
27303;SDS011;14791;52.392;13.092;2023-12-20T14:37:42;1.60;;;1.30;;
27303;SDS011;14791;52.392;13.092;2023-12-20T14:40:11;1.03;;;0.83;;
27303;SDS011;14791;52.392;13.092;2023-12-20T14:42:44;0.77;;;0.77;;
27303;SDS011;14791;52.392;13.092;2023-12-20T14:45:14;1.10;;;1.00;;
27303;SDS011;14791;52.392;13.092;2023-12-20T14:47:46;1.07;;;1.00;;
27303;SDS011;14791;52.392;13.092;2023-12-20T14:50:16;0.63;;;0.63;;
27303;SDS011;14791;52.392;13.092;2023-12-20T14:52:45;0.87;;;0.87;;
27303;SDS011;14791;52.392;13.092;2023-12-20T14:55:14;1.00;;;1.00;;
27303;SDS011;14791;52.392;13.092;2023-12-20T14:57:44;1.47;;;0.80;;